createdAt,value
2022-08-09T00:01:48.375Z,92.50
2022-08-09T00:04:33.986Z,92.60
2022-08-09T00:07:07.602Z,92.60
2022-08-09T00:09:37.517Z,92.70
2022-08-09T00:12:05.149Z,92.70
2022-08-09T00:14:38.236Z,92.80
2022-08-09T00:17:06.140Z,92.90
2022-08-09T00:19:33.964Z,92.90
2022-08-09T00:22:03.373Z,93.00
2022-08-09T00:24:32.039Z,93.00
2022-08-09T00:27:00.057Z,93.10
2022-08-09T00:30:16.071Z,93.10
2022-08-09T00:32:26.539Z,93.10
2022-08-09T00:34:54.397Z,93.20
2022-08-09T00:37:21.111Z,93.30
2022-08-09T00:40:12.391Z,93.30
2022-08-09T00:44:25.051Z,93.30
2022-08-09T00:45:21.429Z,93.40
2022-08-09T00:47:48.285Z,93.40
2022-08-09T00:50:15.211Z,93.50
2022-08-09T00:52:42.257Z,93.90
2022-08-09T00:55:16.699Z,93.70
2022-08-09T00:58:00.114Z,93.70
2022-08-09T01:00:30.224Z,93.80
2022-08-09T01:03:10.685Z,93.70
2022-08-09T01:05:57.977Z,93.90
2022-08-09T01:09:00.437Z,93.80
2022-08-09T01:11:40.616Z,93.80
2022-08-09T01:14:52.468Z,93.80
2022-08-09T01:17:47.145Z,93.90
2022-08-09T01:20:17.421Z,93.90
2022-08-09T01:23:03.569Z,93.90
2022-08-09T01:25:51.099Z,94.00
2022-08-09T01:28:22.376Z,94.10
2022-08-09T01:30:53.152Z,94.10
2022-08-09T01:33:27.400Z,94.00
2022-08-09T01:36:07.140Z,94.10
2022-08-09T01:38:40.590Z,94.00
2022-08-09T01:41:25.949Z,94.00
2022-08-09T01:43:56.714Z,94.00
2022-08-09T01:46:36.171Z,94.00
2022-08-09T01:49:12.875Z,94.00
2022-08-09T01:51:54.810Z,94.00
2022-08-09T01:54:33.452Z,94.10
2022-08-09T01:57:11.792Z,94.20
2022-08-09T01:59:51.964Z,94.20
2022-08-09T02:02:25.006Z,94.30
2022-08-09T02:05:05.256Z,94.30
2022-08-09T02:08:38.947Z,94.30
2022-08-09T02:10:39.250Z,94.30
2022-08-09T02:13:09.074Z,94.80
2022-08-09T02:15:49.408Z,94.50
2022-08-09T02:18:27.297Z,94.50
2022-08-09T02:21:11.733Z,94.50
2022-08-09T02:23:54.801Z,94.60
2022-08-09T02:26:27.505Z,94.70
2022-08-09T02:28:59.520Z,94.70
2022-08-09T02:31:34.070Z,94.80
2022-08-09T02:34:40.205Z,94.80
2022-08-09T02:37:03.928Z,94.90
2022-08-09T02:39:41.971Z,94.90
2022-08-09T02:42:24.927Z,95.10
2022-08-09T02:44:58.945Z,95.00
2022-08-09T02:47:28.119Z,95.10
2022-08-09T02:50:13.422Z,95.10
2022-08-09T02:53:25.670Z,95.10
2022-08-09T02:55:58.785Z,95.30
2022-08-09T02:58:35.867Z,95.30
2022-08-09T03:01:08.098Z,95.40
2022-08-09T03:04:13.233Z,95.50
2022-08-09T03:06:30.399Z,95.60
2022-08-09T03:09:01.001Z,95.70
2022-08-09T03:11:29.712Z,95.70
2022-08-09T03:14:17.769Z,95.70
2022-08-09T03:16:48.327Z,95.80
2022-08-09T03:19:59.139Z,95.90
2022-08-09T03:22:12.142Z,96.00
2022-08-09T03:24:52.734Z,96.20
2022-08-09T03:27:45.149Z,96.40
2022-08-09T03:30:14.192Z,96.50
2022-08-09T03:33:01.122Z,96.60
2022-08-09T03:35:44.430Z,96.70
2022-08-09T03:38:29.034Z,96.70
2022-08-09T03:40:58.100Z,96.80
2022-08-09T03:43:25.432Z,96.90
2022-08-09T03:46:05.019Z,97.10
2022-08-09T03:48:55.261Z,97.20
2022-08-09T03:51:55.297Z,97.20
2022-08-09T03:54:11.531Z,97.30
2022-08-09T03:56:40.981Z,97.20
2022-08-09T03:59:13.865Z,97.40
2022-08-09T04:01:44.650Z,97.30
2022-08-09T04:04:16.289Z,97.40
2022-08-09T04:06:48.890Z,97.40
2022-08-09T04:09:41.892Z,97.50
2022-08-09T04:12:44.588Z,97.50
2022-08-09T04:15:29.485Z,97.70
2022-08-09T04:18:03.967Z,97.70
2022-08-09T04:20:30.836Z,97.90
2022-08-09T04:22:59.592Z,98.00
2022-08-09T04:25:26.715Z,98.10
2022-08-09T04:27:55.414Z,98.10
2022-08-09T04:30:29.595Z,98.20
2022-08-09T04:32:57.057Z,98.30
2022-08-09T04:35:23.908Z,98.40
2022-08-09T04:37:53.150Z,98.40
2022-08-09T04:40:36.310Z,98.40
2022-08-09T04:43:03.913Z,98.50
2022-08-09T04:45:35.851Z,98.70
2022-08-09T04:48:10.521Z,98.60
2022-08-09T04:50:38.126Z,98.60
2022-08-09T04:53:13.222Z,98.80
2022-08-09T04:55:58.688Z,98.70
2022-08-09T04:58:31.907Z,98.70
2022-08-09T05:01:01.975Z,98.70
2022-08-09T05:03:40.525Z,98.80
2022-08-09T05:06:21.928Z,99.10
2022-08-09T05:08:59.923Z,98.90
2022-08-09T05:11:32.156Z,98.90
2022-08-09T05:14:06.196Z,98.70
2022-08-09T05:16:58.033Z,98.80
2022-08-09T05:19:24.430Z,98.60
2022-08-09T05:21:56.045Z,98.50
2022-08-09T05:24:26.362Z,98.60
2022-08-09T05:26:53.444Z,98.40
2022-08-09T05:29:24.562Z,98.50
2022-08-09T05:32:00.533Z,98.40
2022-08-09T05:34:33.474Z,97.50
2022-08-09T05:37:07.393Z,97.10
2022-08-09T05:39:44.544Z,96.40
2022-08-09T05:42:17.774Z,95.70
2022-08-09T05:44:57.920Z,95.00
2022-08-09T05:47:30.273Z,94.60
2022-08-09T05:50:30.975Z,94.30
2022-08-09T05:52:52.108Z,94.40
2022-08-09T05:55:21.843Z,93.80
2022-08-09T05:57:56.682Z,93.50
2022-08-09T06:00:29.093Z,92.80
2022-08-09T06:02:58.715Z,92.20
2022-08-09T06:05:31.031Z,92.30
2022-08-09T06:08:19.363Z,92.00
2022-08-09T06:10:51.571Z,91.80
2022-08-09T06:13:20.544Z,91.50
2022-08-09T06:15:51.285Z,91.80
2022-08-09T06:18:25.445Z,91.30
2022-08-09T06:20:57.816Z,91.30
2022-08-09T06:23:54.957Z,91.10
2022-08-09T06:26:21.148Z,90.90
2022-08-09T06:29:00.106Z,91.00
2022-08-09T06:31:31.466Z,90.70
2022-08-09T06:34:06.852Z,90.40
2022-08-09T06:36:34.334Z,90.20
2022-08-09T06:39:02.647Z,90.30
2022-08-09T06:42:07.737Z,90.00
2022-08-09T06:44:23.746Z,89.40
2022-08-09T06:46:55.048Z,88.80
2022-08-09T06:49:44.461Z,87.90
2022-08-09T06:52:10.668Z,88.70
2022-08-09T06:54:39.117Z,88.70
2022-08-09T06:57:08.509Z,88.80
2022-08-09T07:00:50.916Z,88.30
2022-08-09T07:02:22.146Z,87.60
2022-08-09T07:04:56.435Z,87.30
2022-08-09T07:07:28.617Z,85.90
2022-08-09T07:10:29.424Z,85.70
2022-08-09T07:12:59.043Z,86.20
2022-08-09T07:16:36.539Z,85.90
2022-08-09T07:18:15.023Z,86.50
2022-08-09T07:20:43.467Z,86.90
2022-08-09T07:23:18.963Z,86.60
2022-08-09T07:25:47.595Z,85.40
2022-08-09T07:28:26.291Z,85.40
2022-08-09T07:30:55.508Z,85.60
2022-08-09T07:33:22.517Z,85.30
2022-08-09T07:35:54.174Z,84.60
2022-08-09T07:38:23.393Z,84.50
2022-08-09T07:41:11.482Z,84.70
2022-08-09T07:43:49.596Z,84.70
2022-08-09T07:46:19.371Z,84.60
2022-08-09T07:48:58.960Z,85.20
2022-08-09T07:52:05.255Z,84.40
2022-08-09T07:54:14.239Z,83.80
2022-08-09T07:56:48.925Z,82.90
2022-08-09T07:59:33.553Z,84.00
2022-08-09T08:02:09.068Z,84.70
2022-08-09T08:04:38.969Z,86.00
2022-08-09T08:07:27.210Z,85.40
2022-08-09T08:10:08.050Z,84.90
2022-08-09T08:12:45.642Z,83.60
2022-08-09T08:15:18.038Z,83.70
2022-08-09T08:17:58.136Z,84.70
2022-08-09T08:20:29.354Z,83.30
2022-08-09T08:23:03.819Z,84.10
2022-08-09T08:25:45.888Z,85.40
2022-08-09T08:28:14.138Z,83.20
2022-08-09T08:30:44.664Z,82.70
2022-08-09T08:33:23.676Z,83.20
2022-08-09T08:35:58.239Z,84.10
2022-08-09T08:38:27.884Z,82.80
2022-08-09T08:40:56.484Z,83.10
2022-08-09T08:43:27.576Z,83.50
2022-08-09T08:46:24.895Z,81.90
2022-08-09T08:48:52.045Z,81.60
2022-08-09T08:51:24.337Z,82.60
2022-08-09T08:54:03.790Z,82.70
2022-08-09T08:56:41.443Z,83.10
2022-08-09T08:59:19.772Z,83.70
2022-08-09T09:01:52.983Z,83.70
2022-08-09T09:04:29.799Z,82.80
2022-08-09T09:07:08.166Z,82.50
2022-08-09T09:09:58.436Z,81.90
2022-08-09T09:12:29.923Z,81.90
2022-08-09T09:15:00.529Z,81.90
2022-08-09T09:17:48.722Z,82.10
2022-08-09T09:20:16.056Z,81.60
2022-08-09T09:23:03.573Z,81.40
2022-08-09T09:26:01.189Z,80.80
2022-08-09T09:29:01.918Z,80.80
2022-08-09T09:31:17.454Z,80.10
2022-08-09T09:34:18.107Z,80.90
2022-08-09T09:36:46.934Z,80.60
2022-08-09T09:39:22.875Z,81.60
2022-08-09T09:41:51.321Z,81.70
2022-08-09T09:44:31.886Z,80.60
2022-08-09T09:47:08.341Z,79.40
2022-08-09T09:50:13.557Z,79.00
2022-08-09T09:52:36.798Z,78.20
2022-08-09T09:55:23.976Z,79.10
2022-08-09T09:58:19.194Z,79.90
2022-08-09T10:00:59.026Z,80.90
2022-08-09T10:03:42.829Z,79.90
2022-08-09T10:06:10.250Z,79.00
2022-08-09T10:08:54.516Z,79.10
2022-08-09T10:12:01.376Z,77.30
2022-08-09T10:14:30.793Z,76.70
2022-08-09T10:17:39.004Z,78.20
2022-08-09T10:19:58.863Z,77.20
2022-08-09T10:22:44.301Z,77.90
2022-08-09T10:25:14.221Z,77.40
2022-08-09T10:27:56.982Z,77.60
2022-08-09T10:34:04.475Z,79.30
2022-08-09T10:36:09.379Z,76.80
2022-08-09T10:38:56.825Z,78.90
2022-08-09T10:41:27.911Z,77.50
2022-08-09T10:43:59.512Z,76.50
2022-08-09T10:46:57.371Z,76.70
2022-08-09T10:49:54.374Z,77.20
2022-08-09T10:52:44.523Z,77.40
2022-08-09T10:55:26.507Z,76.70
2022-08-09T10:58:00.202Z,76.80
2022-08-09T11:00:51.010Z,77.10
2022-08-09T11:03:47.117Z,76.20
2022-08-09T11:06:25.209Z,76.20
2022-08-09T11:08:53.283Z,76.90
2022-08-09T11:11:23.198Z,75.60
2022-08-09T11:14:28.523Z,76.30
2022-08-09T11:16:56.312Z,74.30
2022-08-09T11:20:22.467Z,74.60
2022-08-09T11:22:57.142Z,74.70
2022-08-09T11:25:44.534Z,74.40
2022-08-09T11:28:55.828Z,74.40
2022-08-09T11:31:49.377Z,73.50
2022-08-09T11:34:24.925Z,74.30
2022-08-09T11:36:52.864Z,73.60
2022-08-09T11:39:22.103Z,73.70
2022-08-09T11:41:53.671Z,72.60
2022-08-09T11:44:45.214Z,73.50
2022-08-09T11:47:14.417Z,73.00
2022-08-09T11:50:54.109Z,74.40
2022-08-09T11:53:16.613Z,72.80
2022-08-09T11:55:53.192Z,72.60
2022-08-09T11:58:32.474Z,71.80
2022-08-09T12:01:08.968Z,71.40
2022-08-09T12:03:56.892Z,70.90
2022-08-09T12:06:32.179Z,70.90
2022-08-09T12:09:05.212Z,71.50
2022-08-09T12:11:44.629Z,70.60
2022-08-09T12:14:40.511Z,71.10
2022-08-09T12:17:34.528Z,71.00
2022-08-09T12:20:22.672Z,71.20
2022-08-09T12:22:59.057Z,70.70
2022-08-09T12:25:36.474Z,70.70
2022-08-09T12:29:11.817Z,72.20
2022-08-09T12:31:10.720Z,70.60
2022-08-09T12:33:59.075Z,71.30
2022-08-09T12:36:33.782Z,71.10
2022-08-09T12:39:04.268Z,70.00
2022-08-09T12:41:40.202Z,71.40
2022-08-09T12:44:09.973Z,71.10
2022-08-09T12:46:49.046Z,70.70
2022-08-09T12:49:18.362Z,69.60
2022-08-09T12:52:00.820Z,69.60
2022-08-09T12:56:15.385Z,68.80
2022-08-09T12:57:42.711Z,68.20
2022-08-09T13:00:25.419Z,68.40
2022-08-09T13:02:59.306Z,67.60
2022-08-09T13:05:51.128Z,67.40
2022-08-09T13:08:40.326Z,67.80
2022-08-09T13:11:22.886Z,68.10
2022-08-09T13:14:40.663Z,68.20
2022-08-09T13:16:48.228Z,66.70
2022-08-09T13:20:10.712Z,67.20
2022-08-09T13:22:35.667Z,68.00
2022-08-09T13:25:07.528Z,67.80
2022-08-09T13:27:39.445Z,68.20
2022-08-09T13:31:11.189Z,68.00
2022-08-09T13:33:04.213Z,67.10
2022-08-09T13:35:34.255Z,67.70
2022-08-09T13:38:02.371Z,66.70
2022-08-09T13:41:54.739Z,66.70
2022-08-09T13:43:19.220Z,66.60
2022-08-09T13:46:43.271Z,65.80
2022-08-09T13:48:39.277Z,65.70
2022-08-09T13:51:09.192Z,65.80
2022-08-09T13:53:43.704Z,65.90
2022-08-09T13:56:12.179Z,64.20
2022-08-09T13:58:39.035Z,64.20
2022-08-09T14:01:06.221Z,64.10
2022-08-09T14:04:04.770Z,65.70
2022-08-09T14:06:29.561Z,64.30
2022-08-09T14:08:58.561Z,64.30
2022-08-09T14:11:28.226Z,64.50
2022-08-09T14:14:24.621Z,64.20
2022-08-09T14:16:41.811Z,64.50
2022-08-09T14:19:11.502Z,66.00
2022-08-09T14:21:38.310Z,65.10
2022-08-09T14:24:18.322Z,66.40
2022-08-09T14:26:52.126Z,65.00
2022-08-09T14:30:35.227Z,65.10
2022-08-09T14:32:16.318Z,65.10
2022-08-09T14:34:46.717Z,65.40
2022-08-09T14:37:28.221Z,64.40
2022-08-09T14:39:55.520Z,64.50
2022-08-09T14:42:29.120Z,62.70
2022-08-09T14:46:57.639Z,63.70
2022-08-09T14:47:58.708Z,62.30
2022-08-09T14:50:37.373Z,61.60
2022-08-09T14:53:11.521Z,61.00
2022-08-09T14:55:50.189Z,61.10
2022-08-09T14:58:20.334Z,60.90
2022-08-09T15:00:48.502Z,61.80
2022-08-09T15:03:19.980Z,61.90
2022-08-09T15:05:52.322Z,61.10
2022-08-09T15:08:24.819Z,61.70
2022-08-09T15:11:00.677Z,61.30
2022-08-09T15:13:48.643Z,61.40
2022-08-09T15:16:16.170Z,62.40
2022-08-09T15:18:43.084Z,62.40
2022-08-09T15:21:57.535Z,63.00
2022-08-09T15:24:08.982Z,62.20
2022-08-09T15:26:46.013Z,62.60
2022-08-09T15:30:57.628Z,61.70
2022-08-09T15:32:00.574Z,61.50
2022-08-09T15:34:33.038Z,61.40
2022-08-09T15:37:04.384Z,61.20
2022-08-09T15:39:34.324Z,60.80
2022-08-09T15:42:02.612Z,60.40
2022-08-09T15:44:29.332Z,60.70
2022-08-09T15:46:59.452Z,61.70
2022-08-09T15:49:28.497Z,60.70
2022-08-09T15:52:06.328Z,60.40
2022-08-09T15:54:50.473Z,60.60
2022-08-09T15:57:35.997Z,60.20
2022-08-09T16:00:14.063Z,59.80
2022-08-09T16:02:48.113Z,61.20
2022-08-09T16:05:22.342Z,62.40
2022-08-09T16:07:50.477Z,61.90
2022-08-09T16:10:55.982Z,62.40
2022-08-09T16:13:20.956Z,62.10
2022-08-09T16:16:10.835Z,63.70
2022-08-09T16:18:44.603Z,64.80
2022-08-09T16:21:17.486Z,66.30
2022-08-09T16:23:55.734Z,67.60
2022-08-09T16:26:35.125Z,68.20
2022-08-09T16:29:14.205Z,68.50
2022-08-09T16:32:20.065Z,69.00
2022-08-09T16:34:56.619Z,68.70
2022-08-09T16:37:53.027Z,69.00
2022-08-09T16:40:11.481Z,70.30
2022-08-09T16:42:45.438Z,69.40
2022-08-09T16:45:19.567Z,69.50
2022-08-09T16:48:38.091Z,69.20
2022-08-09T16:50:38.151Z,69.10
2022-08-09T16:53:05.877Z,69.10
2022-08-09T16:55:57.843Z,69.80
2022-08-09T16:58:21.099Z,69.50
2022-08-09T17:00:48.508Z,69.50
2022-08-09T17:03:21.575Z,69.70
2022-08-09T17:06:07.818Z,69.90
2022-08-09T17:08:58.851Z,70.50
2022-08-09T17:11:40.676Z,71.20
2022-08-09T17:14:25.403Z,71.00
2022-08-09T17:17:02.163Z,71.60
2022-08-09T17:19:46.840Z,72.10
2022-08-09T17:22:28.779Z,71.80
2022-08-09T17:25:02.625Z,72.30
2022-08-09T17:27:33.833Z,72.10
2022-08-09T17:30:04.691Z,72.10
2022-08-09T17:32:37.833Z,72.20
2022-08-09T17:35:10.943Z,72.00
2022-08-09T17:38:14.380Z,72.40
2022-08-09T17:40:30.102Z,72.60
2022-08-09T17:43:03.316Z,72.60
2022-08-09T17:46:02.891Z,72.80
2022-08-09T17:48:39.851Z,72.90
2022-08-09T17:51:18.077Z,73.20
2022-08-09T17:53:52.962Z,73.70
2022-08-09T17:56:28.859Z,73.90
2022-08-09T17:59:00.645Z,74.00
2022-08-09T18:02:03.876Z,74.30
2022-08-09T18:04:17.937Z,75.20
2022-08-09T18:06:49.764Z,75.10
2022-08-09T18:09:21.589Z,75.40
2022-08-09T18:12:15.400Z,75.80
2022-08-09T18:14:53.692Z,76.20
2022-08-09T18:17:27.644Z,76.30
2022-08-09T18:20:54.369Z,77.10
2022-08-09T18:23:05.040Z,76.80
2022-08-09T18:25:50.509Z,77.40
2022-08-09T18:30:38.745Z,77.00
2022-08-09T18:31:12.200Z,77.20
2022-08-09T18:33:48.826Z,76.70
2022-08-09T18:36:25.898Z,76.20
2022-08-09T18:39:02.459Z,76.90
2022-08-09T18:41:34.398Z,76.40
2022-08-09T18:44:03.506Z,76.70
2022-08-09T18:46:51.089Z,77.90
2022-08-09T18:49:19.549Z,77.30
2022-08-09T18:51:55.361Z,77.70
2022-08-09T18:54:28.562Z,78.20
2022-08-09T18:57:06.253Z,78.60
2022-08-09T18:59:51.581Z,78.80
2022-08-09T19:02:31.722Z,79.20
2022-08-09T19:05:19.784Z,79.40
2022-08-09T19:08:03.771Z,80.00
2022-08-09T19:10:39.482Z,80.30
2022-08-09T19:13:20.902Z,80.20
2022-08-09T19:15:55.699Z,80.30
2022-08-09T19:18:37.428Z,80.50
2022-08-09T19:21:09.874Z,80.60
2022-08-09T19:24:37.779Z,80.60
2022-08-09T19:26:32.383Z,80.90
2022-08-09T19:29:09.472Z,80.80
2022-08-09T19:31:45.274Z,81.40
2022-08-09T19:34:21.139Z,81.60
2022-08-09T19:37:16.857Z,81.50
2022-08-09T19:40:04.062Z,81.70
2022-08-09T19:42:34.949Z,82.00
2022-08-09T19:45:05.685Z,82.10
2022-08-09T19:47:32.441Z,82.20
2022-08-09T19:50:47.969Z,82.20
2022-08-09T19:52:52.504Z,82.20
2022-08-09T19:55:30.886Z,82.20
2022-08-09T19:58:15.933Z,82.00
2022-08-09T20:00:45.342Z,82.50
2022-08-09T20:04:25.078Z,82.70
2022-08-09T20:06:04.780Z,82.60
2022-08-09T20:08:51.150Z,83.40
2022-08-09T20:11:17.869Z,83.10
2022-08-09T20:13:53.925Z,83.10
2022-08-09T20:16:33.877Z,83.50
2022-08-09T20:19:49.582Z,83.30
2022-08-09T20:21:56.628Z,83.70
2022-08-09T20:24:29.620Z,83.60
2022-08-09T20:27:08.174Z,83.80
2022-08-09T20:29:37.249Z,84.00
2022-08-09T20:32:30.973Z,84.00
2022-08-09T20:34:57.495Z,84.00
2022-08-09T20:38:18.475Z,83.80
2022-08-09T20:40:26.439Z,84.00
2022-08-09T20:43:17.995Z,84.20
2022-08-09T20:45:57.850Z,84.30
2022-08-09T20:48:32.411Z,83.80
2022-08-09T20:51:03.132Z,84.60
2022-08-09T20:53:36.703Z,84.10
2022-08-09T20:56:20.481Z,84.50
2022-08-09T20:58:49.635Z,84.50
2022-08-09T21:01:35.444Z,84.40
2022-08-09T21:05:49.521Z,84.90
2022-08-09T21:06:51.451Z,85.40
2022-08-09T21:09:25.064Z,85.00
2022-08-09T21:14:41.583Z,85.00
2022-08-09T21:18:11.127Z,85.00
2022-08-09T21:20:17.131Z,85.10
2022-08-09T21:22:54.581Z,85.40
2022-08-09T21:25:44.380Z,85.80
2022-08-09T21:28:33.729Z,85.70
2022-08-09T21:31:16.355Z,86.10
2022-08-09T21:33:46.070Z,86.20
2022-08-09T21:36:23.348Z,86.60
2022-08-09T21:38:58.842Z,86.70
2022-08-09T21:42:05.569Z,86.50
2022-08-09T21:44:33.067Z,86.80
2022-08-09T21:47:07.457Z,87.00
2022-08-09T21:49:42.976Z,87.20
2022-08-09T21:52:16.668Z,87.30
2022-08-09T21:55:04.234Z,87.60
2022-08-09T21:57:38.943Z,87.80
2022-08-09T22:00:32.633Z,88.00
2022-08-09T22:03:04.806Z,87.80
2022-08-09T22:05:36.799Z,88.10
2022-08-09T22:08:12.942Z,88.30
2022-08-09T22:11:00.196Z,88.70
2022-08-09T22:13:31.522Z,89.00
2022-08-09T22:16:09.120Z,89.10
2022-08-09T22:18:53.306Z,89.10
2022-08-09T22:21:44.635Z,89.10
2022-08-09T22:24:17.226Z,89.20
2022-08-09T22:26:51.503Z,89.20
2022-08-09T22:29:19.735Z,89.20
2022-08-09T22:31:57.408Z,89.70
2022-08-09T22:34:26.711Z,89.80
2022-08-09T22:36:57.933Z,90.20
2022-08-09T22:39:55.979Z,90.20
2022-08-09T22:42:23.361Z,90.30
2022-08-09T22:45:00.108Z,90.20
2022-08-09T22:48:13.474Z,90.40
2022-08-09T22:50:26.500Z,90.50
2022-08-09T22:52:57.647Z,90.50
2022-08-09T22:55:39.671Z,90.50
2022-08-09T22:58:30.978Z,90.70
2022-08-09T23:01:06.473Z,90.80
2022-08-09T23:04:04.868Z,90.90
2022-08-09T23:06:34.672Z,90.90
2022-08-09T23:09:01.881Z,91.00
2022-08-09T23:11:28.598Z,91.20
2022-08-09T23:13:55.328Z,91.20
2022-08-09T23:16:23.073Z,91.30
2022-08-09T23:18:49.870Z,91.40
2022-08-09T23:21:23.908Z,91.40
2022-08-09T23:24:06.605Z,91.40
2022-08-09T23:26:38.878Z,91.50
2022-08-09T23:29:11.590Z,91.70
2022-08-09T23:31:38.334Z,91.70
2022-08-09T23:34:07.462Z,91.70
2022-08-09T23:36:34.931Z,91.90
2022-08-09T23:39:04.204Z,91.90
2022-08-09T23:41:31.129Z,92.10
2022-08-09T23:44:04.228Z,92.10
2022-08-09T23:46:32.185Z,92.20
2022-08-09T23:48:59.883Z,92.20
2022-08-09T23:51:30.051Z,92.30
2022-08-09T23:54:02.210Z,92.40
2022-08-09T23:56:52.270Z,92.50
2022-08-09T23:59:21.595Z,92.50
